sensor_id;sensor_type;location;lat;lon;timestamp;temperature;humidity
39815;DHT22;25495;45.948;4.568;2022-12-18T00:01:46;-3.70;99.90
39815;DHT22;25495;45.948;4.568;2022-12-18T00:04:21;-3.70;99.90
39815;DHT22;25495;45.948;4.568;2022-12-18T00:06:47;-3.60;99.90
39815;DHT22;25495;45.948;4.568;2022-12-18T00:09:14;-3.60;99.90
39815;DHT22;25495;45.948;4.568;2022-12-18T00:11:40;-3.50;99.90
39815;DHT22;25495;45.948;4.568;2022-12-18T00:14:05;-3.40;99.90
39815;DHT22;25495;45.948;4.568;2022-12-18T00:16:31;-3.40;99.90
39815;DHT22;25495;45.948;4.568;2022-12-18T00:18:59;-3.40;99.90
39815;DHT22;25495;45.948;4.568;2022-12-18T00:21:26;-3.30;99.90
39815;DHT22;25495;45.948;4.568;2022-12-18T00:23:53;-3.30;99.90
39815;DHT22;25495;45.948;4.568;2022-12-18T00:26:30;-3.30;99.90
39815;DHT22;25495;45.948;4.568;2022-12-18T00:29:00;-3.40;99.90
39815;DHT22;25495;45.948;4.568;2022-12-18T00:31:26;-3.20;99.90
39815;DHT22;25495;45.948;4.568;2022-12-18T00:33:54;-3.00;99.90
39815;DHT22;25495;45.948;4.568;2022-12-18T00:36:23;-3.00;99.90
39815;DHT22;25495;45.948;4.568;2022-12-18T00:38:49;-2.90;99.90
39815;DHT22;25495;45.948;4.568;2022-12-18T00:41:16;-3.00;99.90
39815;DHT22;25495;45.948;4.568;2022-12-18T00:44:04;-3.00;99.90
39815;DHT22;25495;45.948;4.568;2022-12-18T00:46:30;-3.10;99.90
39815;DHT22;25495;45.948;4.568;2022-12-18T00:48:56;-3.00;99.90
39815;DHT22;25495;45.948;4.568;2022-12-18T00:51:22;-2.90;99.90
39815;DHT22;25495;45.948;4.568;2022-12-18T00:53:48;-3.00;99.90
39815;DHT22;25495;45.948;4.568;2022-12-18T00:56:14;-2.90;99.90
39815;DHT22;25495;45.948;4.568;2022-12-18T00:58:40;-2.90;99.90
39815;DHT22;25495;45.948;4.568;2022-12-18T01:01:06;-2.90;99.90
39815;DHT22;25495;45.948;4.568;2022-12-18T01:03:33;-2.80;99.90
39815;DHT22;25495;45.948;4.568;2022-12-18T01:05:58;-2.80;99.90
39815;DHT22;25495;45.948;4.568;2022-12-18T01:08:24;-3.00;99.90
39815;DHT22;25495;45.948;4.568;2022-12-18T01:10:50;-2.90;99.90
39815;DHT22;25495;45.948;4.568;2022-12-18T01:13:16;-2.90;99.90
39815;DHT22;25495;45.948;4.568;2022-12-18T01:15:51;-2.90;99.90
39815;DHT22;25495;45.948;4.568;2022-12-18T01:18:17;-2.90;99.90
39815;DHT22;25495;45.948;4.568;2022-12-18T01:20:42;-2.70;99.90
39815;DHT22;25495;45.948;4.568;2022-12-18T01:23:08;-2.80;99.90
39815;DHT22;25495;45.948;4.568;2022-12-18T01:25:38;-2.90;99.90
39815;DHT22;25495;45.948;4.568;2022-12-18T01:28:04;-2.80;99.90
39815;DHT22;25495;45.948;4.568;2022-12-18T01:30:30;-2.70;99.90
39815;DHT22;25495;45.948;4.568;2022-12-18T01:32:56;-2.70;99.90
39815;DHT22;25495;45.948;4.568;2022-12-18T01:35:21;-2.60;99.90
39815;DHT22;25495;45.948;4.568;2022-12-18T01:37:47;-2.60;99.90
39815;DHT22;25495;45.948;4.568;2022-12-18T01:40:13;-2.40;99.90
39815;DHT22;25495;45.948;4.568;2022-12-18T01:42:39;-2.20;99.90
39815;DHT22;25495;45.948;4.568;2022-12-18T01:47:50;-2.10;99.90
39815;DHT22;25495;45.948;4.568;2022-12-18T01:53:02;-2.00;99.90
39815;DHT22;25495;45.948;4.568;2022-12-18T01:55:32;-2.10;99.90
39815;DHT22;25495;45.948;4.568;2022-12-18T01:58:00;-2.10;99.90
39815;DHT22;25495;45.948;4.568;2022-12-18T02:00:27;-2.10;99.90
39815;DHT22;25495;45.948;4.568;2022-12-18T02:02:53;-2.00;99.90
39815;DHT22;25495;45.948;4.568;2022-12-18T02:08:27;-2.00;99.90
39815;DHT22;25495;45.948;4.568;2022-12-18T02:17:23;-2.00;99.90
39815;DHT22;25495;45.948;4.568;2022-12-18T02:22:25;-2.00;99.90
39815;DHT22;25495;45.948;4.568;2022-12-18T02:27:59;-2.00;99.90
39815;DHT22;25495;45.948;4.568;2022-12-18T02:30:26;-2.00;99.90
39815;DHT22;25495;45.948;4.568;2022-12-18T02:32:53;-1.90;99.90
39815;DHT22;25495;45.948;4.568;2022-12-18T02:35:25;-1.90;99.90
39815;DHT22;25495;45.948;4.568;2022-12-18T02:37:53;-2.10;99.90
39815;DHT22;25495;45.948;4.568;2022-12-18T02:40:22;-2.00;99.90
39815;DHT22;25495;45.948;4.568;2022-12-18T02:42:48;-2.10;99.90
39815;DHT22;25495;45.948;4.568;2022-12-18T02:45:14;-2.10;99.90
39815;DHT22;25495;45.948;4.568;2022-12-18T02:47:43;-2.10;99.90
39815;DHT22;25495;45.948;4.568;2022-12-18T02:53:17;-1.80;99.90
39815;DHT22;25495;45.948;4.568;2022-12-18T02:58:47;-1.90;99.90
39815;DHT22;25495;45.948;4.568;2022-12-18T03:03:55;-1.90;99.90
39815;DHT22;25495;45.948;4.568;2022-12-18T03:06:39;-1.80;99.90
39815;DHT22;25495;45.948;4.568;2022-12-18T03:09:17;-1.90;99.90
39815;DHT22;25495;45.948;4.568;2022-12-18T03:11:50;-2.20;99.90
39815;DHT22;25495;45.948;4.568;2022-12-18T03:14:38;-2.30;99.90
39815;DHT22;25495;45.948;4.568;2022-12-18T03:17:13;-2.30;99.90
39815;DHT22;25495;45.948;4.568;2022-12-18T03:19:41;-2.30;99.90
39815;DHT22;25495;45.948;4.568;2022-12-18T03:22:09;-2.40;99.90
39815;DHT22;25495;45.948;4.568;2022-12-18T03:24:36;-2.30;99.90
39815;DHT22;25495;45.948;4.568;2022-12-18T03:27:11;-2.30;99.90
39815;DHT22;25495;45.948;4.568;2022-12-18T03:29:42;-2.30;99.90
39815;DHT22;25495;45.948;4.568;2022-12-18T03:32:15;-2.40;99.90
39815;DHT22;25495;45.948;4.568;2022-12-18T03:34:42;-2.50;99.90
39815;DHT22;25495;45.948;4.568;2022-12-18T03:37:09;-2.50;99.90
39815;DHT22;25495;45.948;4.568;2022-12-18T03:39:36;-2.50;99.90
39815;DHT22;25495;45.948;4.568;2022-12-18T03:42:10;-2.30;99.90
39815;DHT22;25495;45.948;4.568;2022-12-18T03:47:33;-2.20;99.90
39815;DHT22;25495;45.948;4.568;2022-12-18T03:52:49;-2.10;99.90
39815;DHT22;25495;45.948;4.568;2022-12-18T03:55:19;-2.10;99.90
39815;DHT22;25495;45.948;4.568;2022-12-18T03:57:47;-2.30;99.90
39815;DHT22;25495;45.948;4.568;2022-12-18T04:00:17;-2.20;99.90
39815;DHT22;25495;45.948;4.568;2022-12-18T04:02:47;-2.20;99.90
39815;DHT22;25495;45.948;4.568;2022-12-18T04:05:16;-2.20;99.90
39815;DHT22;25495;45.948;4.568;2022-12-18T04:07:44;-2.10;99.90
39815;DHT22;25495;45.948;4.568;2022-12-18T04:10:12;-2.10;99.90
39815;DHT22;25495;45.948;4.568;2022-12-18T04:12:38;-2.10;99.90
39815;DHT22;25495;45.948;4.568;2022-12-18T04:15:04;-2.20;99.90
39815;DHT22;25495;45.948;4.568;2022-12-18T04:17:30;-2.30;99.90
39815;DHT22;25495;45.948;4.568;2022-12-18T04:19:56;-2.40;99.90
39815;DHT22;25495;45.948;4.568;2022-12-18T04:22:22;-2.50;99.90
39815;DHT22;25495;45.948;4.568;2022-12-18T04:24:47;-2.60;99.90
39815;DHT22;25495;45.948;4.568;2022-12-18T04:27:13;-2.60;99.90
39815;DHT22;25495;45.948;4.568;2022-12-18T04:29:39;-2.60;99.90
39815;DHT22;25495;45.948;4.568;2022-12-18T04:32:05;-2.60;99.90
39815;DHT22;25495;45.948;4.568;2022-12-18T04:34:31;-2.60;99.90
39815;DHT22;25495;45.948;4.568;2022-12-18T04:36:56;-2.50;99.90
39815;DHT22;25495;45.948;4.568;2022-12-18T04:39:22;-2.30;99.90
39815;DHT22;25495;45.948;4.568;2022-12-18T04:41:48;-2.40;99.90
39815;DHT22;25495;45.948;4.568;2022-12-18T04:44:14;-2.40;99.90
39815;DHT22;25495;45.948;4.568;2022-12-18T04:46:39;-2.30;99.90
39815;DHT22;25495;45.948;4.568;2022-12-18T04:49:05;-2.20;99.90
39815;DHT22;25495;45.948;4.568;2022-12-18T04:51:31;-2.20;99.90
39815;DHT22;25495;45.948;4.568;2022-12-18T04:53:57;-2.20;99.90
39815;DHT22;25495;45.948;4.568;2022-12-18T04:56:22;-2.20;99.90
39815;DHT22;25495;45.948;4.568;2022-12-18T04:58:48;-2.20;99.90
39815;DHT22;25495;45.948;4.568;2022-12-18T05:01:16;-2.20;99.90
39815;DHT22;25495;45.948;4.568;2022-12-18T05:03:43;-2.20;99.90
39815;DHT22;25495;45.948;4.568;2022-12-18T05:06:09;-2.10;99.90
39815;DHT22;25495;45.948;4.568;2022-12-18T05:08:34;-2.10;99.90
39815;DHT22;25495;45.948;4.568;2022-12-18T05:11:09;-2.10;99.90
39815;DHT22;25495;45.948;4.568;2022-12-18T05:13:35;-2.10;99.90
39815;DHT22;25495;45.948;4.568;2022-12-18T05:16:01;-2.20;99.90
39815;DHT22;25495;45.948;4.568;2022-12-18T05:18:28;-2.10;99.90
39815;DHT22;25495;45.948;4.568;2022-12-18T05:20:54;-2.10;99.90
39815;DHT22;25495;45.948;4.568;2022-12-18T05:23:21;-2.20;99.90
39815;DHT22;25495;45.948;4.568;2022-12-18T05:25:58;-2.20;99.90
39815;DHT22;25495;45.948;4.568;2022-12-18T05:28:26;-2.30;99.90
39815;DHT22;25495;45.948;4.568;2022-12-18T05:30:54;-2.30;99.90
39815;DHT22;25495;45.948;4.568;2022-12-18T05:33:21;-2.30;99.90
39815;DHT22;25495;45.948;4.568;2022-12-18T05:35:51;-2.20;99.90
39815;DHT22;25495;45.948;4.568;2022-12-18T05:38:18;-2.30;99.90
39815;DHT22;25495;45.948;4.568;2022-12-18T05:40:43;-2.30;99.90
39815;DHT22;25495;45.948;4.568;2022-12-18T05:43:10;-2.30;99.90
39815;DHT22;25495;45.948;4.568;2022-12-18T05:45:39;-2.30;99.90
39815;DHT22;25495;45.948;4.568;2022-12-18T05:48:06;-2.10;99.90
39815;DHT22;25495;45.948;4.568;2022-12-18T05:50:40;-2.10;99.90
39815;DHT22;25495;45.948;4.568;2022-12-18T05:53:07;-2.10;99.90
39815;DHT22;25495;45.948;4.568;2022-12-18T05:55:37;-2.00;99.90
39815;DHT22;25495;45.948;4.568;2022-12-18T05:58:04;-2.00;99.90
39815;DHT22;25495;45.948;4.568;2022-12-18T06:00:31;-1.90;99.90
39815;DHT22;25495;45.948;4.568;2022-12-18T06:02:58;-1.90;99.90
39815;DHT22;25495;45.948;4.568;2022-12-18T06:05:24;-2.20;99.90
39815;DHT22;25495;45.948;4.568;2022-12-18T06:07:50;-2.30;99.90
39815;DHT22;25495;45.948;4.568;2022-12-18T06:10:18;-2.20;99.90
39815;DHT22;25495;45.948;4.568;2022-12-18T06:12:43;-2.20;99.90
39815;DHT22;25495;45.948;4.568;2022-12-18T06:15:10;-2.20;99.90
39815;DHT22;25495;45.948;4.568;2022-12-18T06:17:36;-2.20;99.90
39815;DHT22;25495;45.948;4.568;2022-12-18T06:20:03;-2.20;99.90
39815;DHT22;25495;45.948;4.568;2022-12-18T06:22:31;-2.40;99.90
39815;DHT22;25495;45.948;4.568;2022-12-18T06:24:57;-2.20;99.90
39815;DHT22;25495;45.948;4.568;2022-12-18T06:27:22;-2.20;99.90
39815;DHT22;25495;45.948;4.568;2022-12-18T06:29:49;-2.40;99.90
39815;DHT22;25495;45.948;4.568;2022-12-18T06:32:15;-2.50;99.90
39815;DHT22;25495;45.948;4.568;2022-12-18T06:34:40;-2.40;99.90
39815;DHT22;25495;45.948;4.568;2022-12-18T06:37:06;-2.30;99.90
39815;DHT22;25495;45.948;4.568;2022-12-18T06:39:32;-2.40;99.90
39815;DHT22;25495;45.948;4.568;2022-12-18T06:41:57;-2.30;99.90
39815;DHT22;25495;45.948;4.568;2022-12-18T06:44:23;-2.20;99.90
39815;DHT22;25495;45.948;4.568;2022-12-18T06:46:49;-2.20;99.90
39815;DHT22;25495;45.948;4.568;2022-12-18T06:49:15;-2.30;99.90
39815;DHT22;25495;45.948;4.568;2022-12-18T06:51:41;-2.20;99.90
39815;DHT22;25495;45.948;4.568;2022-12-18T06:54:07;-2.20;99.90
39815;DHT22;25495;45.948;4.568;2022-12-18T06:56:33;-2.10;99.90
39815;DHT22;25495;45.948;4.568;2022-12-18T06:58:59;-2.10;99.90
39815;DHT22;25495;45.948;4.568;2022-12-18T07:01:25;-2.30;99.90
39815;DHT22;25495;45.948;4.568;2022-12-18T07:03:56;-2.30;99.90
39815;DHT22;25495;45.948;4.568;2022-12-18T07:06:23;-2.40;99.90
39815;DHT22;25495;45.948;4.568;2022-12-18T07:08:50;-2.60;99.90
39815;DHT22;25495;45.948;4.568;2022-12-18T07:11:17;-2.60;99.90
39815;DHT22;25495;45.948;4.568;2022-12-18T07:13:43;-2.40;99.90
39815;DHT22;25495;45.948;4.568;2022-12-18T07:16:13;-2.30;99.90
39815;DHT22;25495;45.948;4.568;2022-12-18T07:18:39;-2.40;99.90
39815;DHT22;25495;45.948;4.568;2022-12-18T07:21:06;-2.40;99.90
39815;DHT22;25495;45.948;4.568;2022-12-18T07:23:33;-2.30;99.90
39815;DHT22;25495;45.948;4.568;2022-12-18T07:26:09;-2.30;99.90
39815;DHT22;25495;45.948;4.568;2022-12-18T07:28:37;-2.20;99.90
39815;DHT22;25495;45.948;4.568;2022-12-18T07:31:08;-2.20;99.90
39815;DHT22;25495;45.948;4.568;2022-12-18T07:33:34;-2.30;99.90
39815;DHT22;25495;45.948;4.568;2022-12-18T07:36:01;-2.20;99.90
39815;DHT22;25495;45.948;4.568;2022-12-18T07:38:28;-2.20;99.90
39815;DHT22;25495;45.948;4.568;2022-12-18T07:40:54;-2.20;99.90
39815;DHT22;25495;45.948;4.568;2022-12-18T07:43:20;-2.20;99.90
39815;DHT22;25495;45.948;4.568;2022-12-18T07:45:49;-2.20;99.90
39815;DHT22;25495;45.948;4.568;2022-12-18T07:48:15;-2.20;99.90
39815;DHT22;25495;45.948;4.568;2022-12-18T07:50:41;-2.20;99.90
39815;DHT22;25495;45.948;4.568;2022-12-18T07:53:06;-2.30;99.90
39815;DHT22;25495;45.948;4.568;2022-12-18T07:55:32;-2.20;99.90
39815;DHT22;25495;45.948;4.568;2022-12-18T07:58:01;-2.30;99.90
39815;DHT22;25495;45.948;4.568;2022-12-18T08:00:27;-2.20;99.90
39815;DHT22;25495;45.948;4.568;2022-12-18T08:02:52;-2.10;99.90
39815;DHT22;25495;45.948;4.568;2022-12-18T08:05:18;-2.10;99.90
39815;DHT22;25495;45.948;4.568;2022-12-18T08:07:44;-2.50;99.90
39815;DHT22;25495;45.948;4.568;2022-12-18T08:10:10;-2.40;99.90
39815;DHT22;25495;45.948;4.568;2022-12-18T08:12:35;-2.60;99.90
39815;DHT22;25495;45.948;4.568;2022-12-18T08:15:01;-2.60;99.90
39815;DHT22;25495;45.948;4.568;2022-12-18T08:17:27;-2.40;99.90
39815;DHT22;25495;45.948;4.568;2022-12-18T08:19:53;-2.40;99.90
39815;DHT22;25495;45.948;4.568;2022-12-18T08:22:18;-2.30;99.90
39815;DHT22;25495;45.948;4.568;2022-12-18T08:24:44;-2.30;99.90
39815;DHT22;25495;45.948;4.568;2022-12-18T08:27:10;-2.20;99.90
39815;DHT22;25495;45.948;4.568;2022-12-18T08:29:36;-2.10;99.90
39815;DHT22;25495;45.948;4.568;2022-12-18T08:32:02;-2.20;99.90
39815;DHT22;25495;45.948;4.568;2022-12-18T08:34:28;-2.20;99.90
39815;DHT22;25495;45.948;4.568;2022-12-18T08:36:54;-2.20;99.90
39815;DHT22;25495;45.948;4.568;2022-12-18T08:39:20;-2.20;99.90
39815;DHT22;25495;45.948;4.568;2022-12-18T08:41:46;-2.20;99.90
39815;DHT22;25495;45.948;4.568;2022-12-18T08:44:32;-2.20;99.90
39815;DHT22;25495;45.948;4.568;2022-12-18T08:47:06;-2.10;99.90
39815;DHT22;25495;45.948;4.568;2022-12-18T08:49:32;-2.30;99.90
39815;DHT22;25495;45.948;4.568;2022-12-18T08:51:58;-2.40;99.90
39815;DHT22;25495;45.948;4.568;2022-12-18T08:54:25;-2.30;99.90
39815;DHT22;25495;45.948;4.568;2022-12-18T08:56:51;-2.40;99.90
39815;DHT22;25495;45.948;4.568;2022-12-18T08:59:18;-2.30;99.90
39815;DHT22;25495;45.948;4.568;2022-12-18T09:01:45;-2.40;99.90
39815;DHT22;25495;45.948;4.568;2022-12-18T09:04:11;-2.50;99.90
39815;DHT22;25495;45.948;4.568;2022-12-18T09:06:37;-2.40;99.90
39815;DHT22;25495;45.948;4.568;2022-12-18T09:09:04;-2.50;99.90
39815;DHT22;25495;45.948;4.568;2022-12-18T09:11:31;-2.50;99.90
39815;DHT22;25495;45.948;4.568;2022-12-18T09:13:58;-2.50;99.90
39815;DHT22;25495;45.948;4.568;2022-12-18T09:16:25;-2.40;99.90
39815;DHT22;25495;45.948;4.568;2022-12-18T09:18:51;-2.20;99.90
39815;DHT22;25495;45.948;4.568;2022-12-18T09:21:19;-2.10;99.90
39815;DHT22;25495;45.948;4.568;2022-12-18T09:23:53;-2.00;99.90
39815;DHT22;25495;45.948;4.568;2022-12-18T09:26:19;-2.00;99.90
39815;DHT22;25495;45.948;4.568;2022-12-18T09:28:45;-2.10;99.90
39815;DHT22;25495;45.948;4.568;2022-12-18T09:31:14;-2.00;99.90
39815;DHT22;25495;45.948;4.568;2022-12-18T09:33:41;-2.10;99.90
39815;DHT22;25495;45.948;4.568;2022-12-18T09:36:09;-2.20;99.90
39815;DHT22;25495;45.948;4.568;2022-12-18T09:38:35;-2.10;99.90
39815;DHT22;25495;45.948;4.568;2022-12-18T09:49:27;-2.10;99.90
39815;DHT22;25495;45.948;4.568;2022-12-18T09:52:02;-1.90;99.90
39815;DHT22;25495;45.948;4.568;2022-12-18T09:54:36;-1.80;99.90
39815;DHT22;25495;45.948;4.568;2022-12-18T09:57:03;-1.80;99.90
39815;DHT22;25495;45.948;4.568;2022-12-18T09:59:37;-1.90;99.90
39815;DHT22;25495;45.948;4.568;2022-12-18T10:02:34;-1.70;99.90
39815;DHT22;25495;45.948;4.568;2022-12-18T10:10:48;-1.40;99.90
39815;DHT22;25495;45.948;4.568;2022-12-18T10:21:11;-1.60;99.90
39815;DHT22;25495;45.948;4.568;2022-12-18T10:26:34;-1.50;99.90
39815;DHT22;25495;45.948;4.568;2022-12-18T10:29:00;-1.40;99.90
39815;DHT22;25495;45.948;4.568;2022-12-18T10:31:27;-1.40;99.90
39815;DHT22;25495;45.948;4.568;2022-12-18T10:33:55;-1.50;99.90
39815;DHT22;25495;45.948;4.568;2022-12-18T10:36:23;-1.40;99.90
39815;DHT22;25495;45.948;4.568;2022-12-18T10:38:49;-1.40;99.90
39815;DHT22;25495;45.948;4.568;2022-12-18T10:43:45;-1.50;99.90
39815;DHT22;25495;45.948;4.568;2022-12-18T10:46:19;-1.50;99.90
39815;DHT22;25495;45.948;4.568;2022-12-18T10:48:55;-1.30;99.90
39815;DHT22;25495;45.948;4.568;2022-12-18T10:54:22;-1.40;99.90
39815;DHT22;25495;45.948;4.568;2022-12-18T10:56:49;-1.40;99.90
39815;DHT22;25495;45.948;4.568;2022-12-18T10:59:16;-1.20;99.90
39815;DHT22;25495;45.948;4.568;2022-12-18T11:01:57;-1.00;99.90
39815;DHT22;25495;45.948;4.568;2022-12-18T11:04:24;-0.60;99.90
39815;DHT22;25495;45.948;4.568;2022-12-18T11:07:01;-0.90;99.90
39815;DHT22;25495;45.948;4.568;2022-12-18T11:09:38;-0.80;99.90
39815;DHT22;25495;45.948;4.568;2022-12-18T11:12:18;-1.10;99.90
39815;DHT22;25495;45.948;4.568;2022-12-18T11:14:54;-1.10;99.90
39815;DHT22;25495;45.948;4.568;2022-12-18T11:20:00;-1.00;99.90
39815;DHT22;25495;45.948;4.568;2022-12-18T11:22:28;-1.10;99.90
39815;DHT22;25495;45.948;4.568;2022-12-18T11:27:25;-1.00;99.90
39815;DHT22;25495;45.948;4.568;2022-12-18T11:29:52;-0.90;99.90
39815;DHT22;25495;45.948;4.568;2022-12-18T11:32:39;-0.80;99.90
39815;DHT22;25495;45.948;4.568;2022-12-18T11:37:35;-0.70;99.90
39815;DHT22;25495;45.948;4.568;2022-12-18T11:40:15;-0.60;99.90
39815;DHT22;25495;45.948;4.568;2022-12-18T11:43:10;-0.50;99.90
39815;DHT22;25495;45.948;4.568;2022-12-18T11:45:55;-0.40;99.90
39815;DHT22;25495;45.948;4.568;2022-12-18T11:48:45;-0.30;99.90
39815;DHT22;25495;45.948;4.568;2022-12-18T11:51:23;0.00;99.90
39815;DHT22;25495;45.948;4.568;2022-12-18T11:53:51;-0.10;99.90
39815;DHT22;25495;45.948;4.568;2022-12-18T11:56:35;0.10;99.90
39815;DHT22;25495;45.948;4.568;2022-12-18T12:12:25;0.10;99.90
39815;DHT22;25495;45.948;4.568;2022-12-18T12:17:39;0.00;99.90
39815;DHT22;25495;45.948;4.568;2022-12-18T12:23:04;0.10;99.90
39815;DHT22;25495;45.948;4.568;2022-12-18T12:25:43;0.20;99.90
39815;DHT22;25495;45.948;4.568;2022-12-18T12:31:14;0.50;99.90
39815;DHT22;25495;45.948;4.568;2022-12-18T12:38:49;0.20;99.90
39815;DHT22;25495;45.948;4.568;2022-12-18T12:41:20;0.30;99.90
39815;DHT22;25495;45.948;4.568;2022-12-18T12:44:09;0.30;99.90
39815;DHT22;25495;45.948;4.568;2022-12-18T12:46:41;0.50;99.90
39815;DHT22;25495;45.948;4.568;2022-12-18T12:49:17;0.50;99.90
39815;DHT22;25495;45.948;4.568;2022-12-18T12:51:47;0.80;99.90
39815;DHT22;25495;45.948;4.568;2022-12-18T12:54:24;0.70;99.90
39815;DHT22;25495;45.948;4.568;2022-12-18T12:57:06;0.80;99.90
39815;DHT22;25495;45.948;4.568;2022-12-18T13:02:51;1.00;99.90
39815;DHT22;25495;45.948;4.568;2022-12-18T13:05:59;1.30;99.90
39815;DHT22;25495;45.948;4.568;2022-12-18T13:08:31;1.10;99.90
39815;DHT22;25495;45.948;4.568;2022-12-18T13:11:34;1.20;99.90
39815;DHT22;25495;45.948;4.568;2022-12-18T13:17:15;1.10;99.90
39815;DHT22;25495;45.948;4.568;2022-12-18T13:19:43;1.00;99.90
39815;DHT22;25495;45.948;4.568;2022-12-18T13:22:31;1.20;99.90
39815;DHT22;25495;45.948;4.568;2022-12-18T13:24:59;1.10;99.90
39815;DHT22;25495;45.948;4.568;2022-12-18T13:30:41;1.20;99.90
39815;DHT22;25495;45.948;4.568;2022-12-18T13:38:37;1.80;99.90
39815;DHT22;25495;45.948;4.568;2022-12-18T13:43:47;1.90;99.90
39815;DHT22;25495;45.948;4.568;2022-12-18T13:51:44;1.70;99.90
39815;DHT22;25495;45.948;4.568;2022-12-18T13:54:39;1.80;99.90
39815;DHT22;25495;45.948;4.568;2022-12-18T13:57:32;1.80;99.90
39815;DHT22;25495;45.948;4.568;2022-12-18T14:00:16;2.00;99.90
39815;DHT22;25495;45.948;4.568;2022-12-18T14:07:47;2.20;99.90
39815;DHT22;25495;45.948;4.568;2022-12-18T14:10:15;2.40;99.90
39815;DHT22;25495;45.948;4.568;2022-12-18T14:12:45;2.30;99.90
39815;DHT22;25495;45.948;4.568;2022-12-18T14:15:30;2.10;99.90
39815;DHT22;25495;45.948;4.568;2022-12-18T14:18:02;1.80;99.90
39815;DHT22;25495;45.948;4.568;2022-12-18T14:20:34;2.00;99.90
39815;DHT22;25495;45.948;4.568;2022-12-18T14:23:00;2.60;99.90
39815;DHT22;25495;45.948;4.568;2022-12-18T14:25:26;2.00;99.90
39815;DHT22;25495;45.948;4.568;2022-12-18T14:30:30;2.00;99.90
39815;DHT22;25495;45.948;4.568;2022-12-18T14:33:20;2.00;99.90
39815;DHT22;25495;45.948;4.568;2022-12-18T14:35:54;2.00;99.90
39815;DHT22;25495;45.948;4.568;2022-12-18T14:38:24;2.00;99.90
39815;DHT22;25495;45.948;4.568;2022-12-18T14:43:27;2.00;99.90
39815;DHT22;25495;45.948;4.568;2022-12-18T14:45:53;2.00;99.90
39815;DHT22;25495;45.948;4.568;2022-12-18T14:48:42;1.90;99.90
39815;DHT22;25495;45.948;4.568;2022-12-18T14:51:17;2.00;99.90
39815;DHT22;25495;45.948;4.568;2022-12-18T14:53:46;1.90;99.90
39815;DHT22;25495;45.948;4.568;2022-12-18T14:58:45;2.00;99.90
39815;DHT22;25495;45.948;4.568;2022-12-18T15:01:22;2.00;99.90
39815;DHT22;25495;45.948;4.568;2022-12-18T15:03:48;2.00;99.90
39815;DHT22;25495;45.948;4.568;2022-12-18T15:06:24;2.10;99.90
39815;DHT22;25495;45.948;4.568;2022-12-18T15:08:50;2.20;99.90
39815;DHT22;25495;45.948;4.568;2022-12-18T15:11:42;2.30;99.90
39815;DHT22;25495;45.948;4.568;2022-12-18T15:14:31;2.30;99.90
39815;DHT22;25495;45.948;4.568;2022-12-18T15:16:59;2.30;99.90
39815;DHT22;25495;45.948;4.568;2022-12-18T15:19:44;2.30;99.90
39815;DHT22;25495;45.948;4.568;2022-12-18T15:22:22;2.50;99.90
39815;DHT22;25495;45.948;4.568;2022-12-18T15:24:50;2.60;99.90
39815;DHT22;25495;45.948;4.568;2022-12-18T15:27:33;2.70;99.90
39815;DHT22;25495;45.948;4.568;2022-12-18T15:32:36;2.60;99.90
39815;DHT22;25495;45.948;4.568;2022-12-18T15:35:16;2.90;99.90
39815;DHT22;25495;45.948;4.568;2022-12-18T15:37:42;3.00;99.90
39815;DHT22;25495;45.948;4.568;2022-12-18T15:40:12;3.30;99.90
39815;DHT22;25495;45.948;4.568;2022-12-18T15:42:38;3.40;99.90
39815;DHT22;25495;45.948;4.568;2022-12-18T15:45:22;3.10;99.90
39815;DHT22;25495;45.948;4.568;2022-12-18T15:47:48;3.20;99.90
39815;DHT22;25495;45.948;4.568;2022-12-18T15:50:14;3.20;99.90
39815;DHT22;25495;45.948;4.568;2022-12-18T15:52:43;3.30;99.90
39815;DHT22;25495;45.948;4.568;2022-12-18T15:55:18;3.30;99.90
39815;DHT22;25495;45.948;4.568;2022-12-18T15:58:07;3.30;99.90
39815;DHT22;25495;45.948;4.568;2022-12-18T16:00:35;3.30;99.90
39815;DHT22;25495;45.948;4.568;2022-12-18T16:03:01;3.40;99.90
39815;DHT22;25495;45.948;4.568;2022-12-18T16:05:27;3.40;99.90
39815;DHT22;25495;45.948;4.568;2022-12-18T16:07:53;3.50;99.90
39815;DHT22;25495;45.948;4.568;2022-12-18T16:10:19;3.50;99.90
39815;DHT22;25495;45.948;4.568;2022-12-18T16:12:45;3.50;99.90
39815;DHT22;25495;45.948;4.568;2022-12-18T16:15:13;2.90;99.90
39815;DHT22;25495;45.948;4.568;2022-12-18T16:17:43;2.80;99.90
39815;DHT22;25495;45.948;4.568;2022-12-18T16:20:13;2.90;99.90
39815;DHT22;25495;45.948;4.568;2022-12-18T16:22:41;3.00;99.90
39815;DHT22;25495;45.948;4.568;2022-12-18T16:25:22;3.50;99.90
39815;DHT22;25495;45.948;4.568;2022-12-18T16:27:48;3.70;99.90
39815;DHT22;25495;45.948;4.568;2022-12-18T16:30:15;4.00;99.90
39815;DHT22;25495;45.948;4.568;2022-12-18T16:32:41;4.00;99.90
39815;DHT22;25495;45.948;4.568;2022-12-18T16:35:10;4.10;99.90
39815;DHT22;25495;45.948;4.568;2022-12-18T16:37:36;4.10;99.90
39815;DHT22;25495;45.948;4.568;2022-12-18T16:40:01;4.60;99.90
39815;DHT22;25495;45.948;4.568;2022-12-18T16:42:27;5.30;99.90
39815;DHT22;25495;45.948;4.568;2022-12-18T16:44:53;5.20;99.90
39815;DHT22;25495;45.948;4.568;2022-12-18T16:47:19;5.00;99.90
39815;DHT22;25495;45.948;4.568;2022-12-18T16:49:44;5.50;99.90
39815;DHT22;25495;45.948;4.568;2022-12-18T16:52:10;5.40;99.90
39815;DHT22;25495;45.948;4.568;2022-12-18T16:54:36;5.10;99.90
39815;DHT22;25495;45.948;4.568;2022-12-18T16:57:03;5.10;99.90
39815;DHT22;25495;45.948;4.568;2022-12-18T16:59:29;5.20;99.90
39815;DHT22;25495;45.948;4.568;2022-12-18T17:01:55;5.20;99.90
39815;DHT22;25495;45.948;4.568;2022-12-18T17:04:22;5.30;99.90
39815;DHT22;25495;45.948;4.568;2022-12-18T17:06:48;5.20;99.90
39815;DHT22;25495;45.948;4.568;2022-12-18T17:09:17;5.40;99.90
39815;DHT22;25495;45.948;4.568;2022-12-18T17:11:44;5.50;99.90
39815;DHT22;25495;45.948;4.568;2022-12-18T17:14:17;4.90;99.90
39815;DHT22;25495;45.948;4.568;2022-12-18T17:16:43;4.70;99.90
39815;DHT22;25495;45.948;4.568;2022-12-18T17:19:09;5.30;99.90
39815;DHT22;25495;45.948;4.568;2022-12-18T17:21:35;5.50;99.90
39815;DHT22;25495;45.948;4.568;2022-12-18T17:24:02;6.00;99.90
39815;DHT22;25495;45.948;4.568;2022-12-18T17:26:28;6.20;99.90
39815;DHT22;25495;45.948;4.568;2022-12-18T17:28:56;6.60;99.90
39815;DHT22;25495;45.948;4.568;2022-12-18T17:31:24;6.60;99.90
39815;DHT22;25495;45.948;4.568;2022-12-18T17:33:50;6.60;99.90
39815;DHT22;25495;45.948;4.568;2022-12-18T17:36:17;6.50;99.90
39815;DHT22;25495;45.948;4.568;2022-12-18T17:38:58;6.50;99.90
39815;DHT22;25495;45.948;4.568;2022-12-18T17:41:25;6.60;99.90
39815;DHT22;25495;45.948;4.568;2022-12-18T17:43:59;6.60;99.90
39815;DHT22;25495;45.948;4.568;2022-12-18T17:46:26;6.70;99.90
39815;DHT22;25495;45.948;4.568;2022-12-18T17:48:55;6.70;99.90
39815;DHT22;25495;45.948;4.568;2022-12-18T17:53:47;6.50;99.90
39815;DHT22;25495;45.948;4.568;2022-12-18T17:56:14;6.40;99.90
39815;DHT22;25495;45.948;4.568;2022-12-18T17:58:41;6.50;99.90
39815;DHT22;25495;45.948;4.568;2022-12-18T18:01:07;6.50;99.90
39815;DHT22;25495;45.948;4.568;2022-12-18T18:03:34;6.60;99.90
39815;DHT22;25495;45.948;4.568;2022-12-18T18:06:02;6.60;99.90
39815;DHT22;25495;45.948;4.568;2022-12-18T18:08:28;6.60;99.90
39815;DHT22;25495;45.948;4.568;2022-12-18T18:10:56;6.70;99.90